Time;durP1;ratioP1;P1;durP2;ratioP2;P2;SDS_P1;SDS_P2;PMS_P1;PMS_P2;Temp;Humidity;BMP_temperature;BMP_pressure;BME280_temperature;BME280_humidity;BME280_pressure;Samples;Min_cycle;Max_cycle;Signal;HPM_P1;HPM_P2
2022/05/23 00:01:55;;;;;;;19.58;4.97;;;;;;;15.74;100.00;97310.59;4982293;28;20044;-57
2022/05/23 00:04:21;;;;;;;15.43;4.60;;;;;;;15.85;100.00;97313.28;4982364;28;20092;-56
2022/05/23 00:06:49;;;;;;;14.23;4.57;;;;;;;15.57;100.00;97317.06;4980746;28;20046;-56
2022/05/23 00:09:15;;;;;;;14.85;4.78;;;;;;;15.78;100.00;97322.56;4982831;28;20057;-56
2022/05/23 00:11:41;;;;;;;18.48;5.38;;;;;;;15.58;100.00;97316.94;4981725;28;20034;-56
2022/05/23 00:14:06;;;;;;;15.40;4.68;;;;;;;15.85;100.00;97313.28;4982410;28;20023;-56
2022/05/23 00:16:36;;;;;;;19.23;5.35;;;;;;;15.61;100.00;97310.63;4982025;28;20088;-57
2022/05/23 00:19:02;;;;;;;14.93;4.60;;;;;;;15.75;100.00;97312.28;4982162;28;20030;-56
2022/05/23 00:21:28;;;;;;;14.43;4.53;;;;;;;15.69;100.00;97304.81;4981656;28;20682;-56
2022/05/23 00:23:53;;;;;;;20.73;4.70;;;;;;;15.40;100.00;97303.34;4982234;28;20045;-57
2022/05/23 00:26:20;;;;;;;17.52;5.38;;;;;;;15.70;100.00;97298.63;4982131;28;20412;-54
2022/05/23 00:28:46;;;;;;;15.88;4.88;;;;;;;15.45;100.00;97289.88;4981571;28;20563;-54
2022/05/23 00:31:12;;;;;;;15.13;4.70;;;;;;;15.65;100.00;97290.22;4978608;28;20868;-55
2022/05/23 00:36:30;;;;;;;16.10;4.78;;;;;;;15.75;100.00;97288.59;4980757;28;20049;-54
2022/05/23 00:38:55;;;;;;;20.20;5.03;;;;;;;15.82;100.00;97292.47;4981457;28;20036;-54
2022/05/23 00:44:15;;;;;;;17.08;5.03;;;;;;;15.93;100.00;97304.81;4981611;28;20041;-55
2022/05/23 00:46:56;;;;;;;14.82;4.65;;;;;;;16.08;100.00;97313.38;4981587;28;20132;-54
2022/05/23 00:49:27;;;;;;;15.88;5.20;;;;;;;15.74;100.00;97316.69;4981343;28;20038;-55
2022/05/23 00:51:54;;;;;;;18.75;5.00;;;;;;;15.90;100.00;97315.56;4980903;28;20035;-55
2022/05/23 00:54:22;;;;;;;13.90;5.00;;;;;;;15.93;100.00;97320.59;4981463;28;20034;-56
2022/05/23 00:56:52;;;;;;;14.85;4.82;;;;;;;15.74;100.00;97331.66;4981027;28;20041;-54
2022/05/23 00:59:21;;;;;;;16.33;5.00;;;;;;;15.94;100.00;97338.91;4981325;28;20670;-55
2022/05/23 01:01:47;;;;;;;15.02;4.47;;;;;;;15.69;100.00;97324.03;4980082;28;20034;-55
2022/05/23 01:04:13;;;;;;;15.63;4.72;;;;;;;15.72;100.00;97317.75;4981393;28;20029;-56
2022/05/23 01:06:38;;;;;;;20.30;5.45;;;;;;;15.57;100.00;97320.53;4981018;28;20332;-54
2022/05/23 01:09:04;;;;;;;15.18;4.90;;;;;;;15.66;100.00;97312.91;4981292;28;20703;-55
2022/05/23 01:11:29;;;;;;;15.55;4.90;;;;;;;15.60;100.00;97317.69;4980996;28;20049;-55
2022/05/23 01:13:55;;;;;;;15.98;4.90;;;;;;;15.61;100.00;97321.16;4981241;28;20034;-56
2022/05/23 01:16:22;;;;;;;19.40;5.20;;;;;;;15.47;100.00;97322.13;4984103;28;20385;-55
2022/05/23 01:18:48;;;;;;;16.15;4.90;;;;;;;15.29;100.00;97315.56;4981198;28;20097;-56
2022/05/23 01:21:28;;;;;;;17.08;5.13;;;;;;;15.35;100.00;97320.41;4978976;28;20059;-55
2022/05/23 01:24:12;;;;;;;13.88;4.80;;;;;;;15.03;100.00;97318.22;4981177;28;20050;-54
2022/05/23 01:26:38;;;;;;;15.90;4.85;;;;;;;15.34;100.00;97311.66;4979903;28;20463;-56
2022/05/23 01:29:11;;;;;;;15.20;4.82;;;;;;;15.31;100.00;97303.16;4981080;28;20550;-54
2022/05/23 01:31:37;;;;;;;17.38;5.07;;;;;;;15.30;100.00;97297.06;4980416;28;20038;-55
2022/05/23 01:34:03;;;;;;;18.65;5.45;;;;;;;15.08;100.00;97287.25;4980624;28;20014;-55
2022/05/23 01:36:28;;;;;;;20.02;5.53;;;;;;;15.04;100.00;97281.38;4980215;28;20038;-55
2022/05/23 01:38:53;;;;;;;20.50;5.25;;;;;;;15.07;100.00;97285.56;4981353;28;20061;-56
2022/05/23 01:41:20;;;;;;;17.70;5.40;;;;;;;15.03;100.00;97284.09;4980000;28;20047;-56
2022/05/23 01:43:45;;;;;;;12.32;4.70;;;;;;;14.95;100.00;97294.31;4980703;28;20033;-54
2022/05/23 01:46:10;;;;;;;17.83;5.07;;;;;;;14.94;100.00;97296.09;4980468;28;20053;-55
2022/05/23 01:48:36;;;;;;;19.60;5.70;;;;;;;14.87;100.00;97289.59;4980359;28;20065;-55
2022/05/23 01:51:01;;;;;;;17.83;5.38;;;;;;;14.90;100.00;97286.75;4979922;28;20523;-54
2022/05/23 01:53:26;;;;;;;18.88;5.13;;;;;;;14.69;100.00;97275.97;4980830;28;20061;-56
2022/05/23 01:55:52;;;;;;;20.13;5.50;;;;;;;14.52;100.00;97278.84;4980310;28;20041;-54
2022/05/23 02:01:12;;;;;;;17.88;5.15;;;;;;;14.69;100.00;97272.50;4979941;28;20432;-54
2022/05/23 02:01:15;;;;;;;17.75;5.47;;;;;;;14.74;100.00;97273.88;4979485;28;20107;-55
2022/05/23 02:03:45;;;;;;;16.25;5.13;;;;;;;14.69;100.00;97265.47;4980740;28;20027;-55
2022/05/23 02:06:10;;;;;;;17.95;5.53;;;;;;;14.47;100.00;97266.06;4979549;28;20099;-53
2022/05/23 02:08:36;;;;;;;15.73;5.20;;;;;;;14.72;100.00;97248.66;4980405;28;20022;-55
2022/05/23 02:11:03;;;;;;;20.17;5.57;;;;;;;14.63;100.00;97260.63;4979371;28;20037;-55
2022/05/23 02:13:31;;;;;;;17.02;5.10;;;;;;;14.64;100.00;97263.13;4979021;28;20753;-54
2022/05/23 02:15:57;;;;;;;16.35;5.25;;;;;;;14.62;100.00;97248.47;4979578;28;20054;-55
2022/05/23 02:18:22;;;;;;;16.13;5.30;;;;;;;14.51;100.00;97250.97;4979342;28;20069;-55
2022/05/23 02:20:48;;;;;;;16.50;5.35;;;;;;;14.38;100.00;97243.91;4979370;28;20038;-55
2022/05/23 02:23:13;;;;;;;22.52;5.88;;;;;;;14.26;100.00;97236.88;4979898;28;20034;-54
2022/05/23 02:25:39;;;;;;;16.90;5.15;;;;;;;14.27;100.00;97235.94;4979717;28;20045;-54
2022/05/23 02:28:04;;;;;;;23.98;6.43;;;;;;;14.46;100.00;97232.88;4979272;28;20026;-55
2022/05/23 02:30:29;;;;;;;19.40;5.70;;;;;;;14.25;100.00;97235.22;4979675;28;20058;-54
2022/05/23 02:32:55;;;;;;;14.50;5.18;;;;;;;14.26;100.00;97226.38;4980149;28;20030;-55
2022/05/23 02:35:20;;;;;;;21.58;5.65;;;;;;;14.55;100.00;97237.50;4979306;28;20034;-54
2022/05/23 02:37:46;;;;;;;16.02;5.50;;;;;;;14.64;100.00;97236.06;4979623;28;20038;-55
2022/05/23 02:40:11;;;;;;;20.38;5.68;;;;;;;14.68;100.00;97242.78;4978460;28;20030;-57
2022/05/23 02:42:37;;;;;;;18.27;5.63;;;;;;;14.50;100.00;97244.00;4979584;28;20032;-54
2022/05/23 02:45:06;;;;;;;19.45;5.38;;;;;;;14.48;100.00;97243.28;4980060;28;20034;-56
2022/05/23 02:47:32;;;;;;;16.27;5.32;;;;;;;14.47;100.00;97239.84;4959816;28;20056;-55
2022/05/23 02:49:58;;;;;;;15.82;5.43;;;;;;;14.41;100.00;97243.72;4959908;28;20023;-56
2022/05/23 02:52:23;;;;;;;16.48;5.53;;;;;;;14.29;100.00;97241.94;4977791;28;20031;-54
2022/05/23 02:54:49;;;;;;;20.67;5.95;;;;;;;14.33;100.00;97227.66;4978999;28;20571;-54
2022/05/23 02:57:14;;;;;;;16.90;5.43;;;;;;;14.25;100.00;97220.31;4978394;28;20038;-56
2022/05/23 02:59:40;;;;;;;14.90;5.13;;;;;;;14.36;100.00;97209.09;4979090;28;20718;-54
2022/05/23 03:04:49;;;;;;;16.60;5.38;;;;;;;14.24;100.00;97202.06;4979483;28;20113;-57
2022/05/23 03:07:15;;;;;;;15.50;5.15;;;;;;;14.26;100.00;97205.41;4978916;28;20329;-56
2022/05/23 03:09:40;;;;;;;17.75;5.60;;;;;;;14.14;100.00;97201.84;4978568;28;20034;-55
2022/05/23 03:12:06;;;;;;;16.05;5.72;;;;;;;13.98;100.00;97195.97;4978373;28;20033;-54
2022/05/23 03:14:32;;;;;;;16.25;5.25;;;;;;;14.04;100.00;97200.78;4978939;28;20033;-55
2022/05/23 03:17:04;;;;;;;18.65;6.03;;;;;;;14.28;100.00;97203.53;4978567;28;20038;-57
2022/05/23 03:19:30;;;;;;;15.00;5.03;;;;;;;14.06;100.00;97205.00;4978970;28;20026;-54
2022/05/23 03:27:25;;;;;;;16.70;5.43;;;;;;;14.35;100.00;97210.00;4978534;28;20150;-55
2022/05/23 03:29:51;;;;;;;16.35;5.50;;;;;;;14.42;100.00;97206.03;4978834;28;20133;-55
2022/05/23 03:32:16;;;;;;;15.40;5.50;;;;;;;14.31;100.00;97191.97;4978769;28;20693;-55
2022/05/23 03:34:42;;;;;;;16.70;5.68;;;;;;;14.32;100.00;97183.16;4978549;28;20029;-56
2022/05/23 03:37:07;;;;;;;16.05;5.30;;;;;;;14.32;100.00;97193.66;4978435;28;20326;-55
2022/05/23 03:39:32;;;;;;;21.10;6.05;;;;;;;14.30;100.00;97177.19;4978847;28;20037;-54
2022/05/23 03:41:58;;;;;;;19.83;5.97;;;;;;;14.37;100.00;97181.91;4976891;28;20715;-56
2022/05/23 03:44:23;;;;;;;15.45;5.30;;;;;;;14.43;100.00;97178.84;4979082;28;20019;-58
2022/05/23 03:46:48;;;;;;;19.50;5.97;;;;;;;14.31;100.00;97184.94;4978534;28;20095;-55
2022/05/23 03:49:14;;;;;;;17.48;5.90;;;;;;;14.24;100.00;97191.56;4978743;28;20038;-55
2022/05/23 03:51:39;;;;;;;15.60;5.18;;;;;;;14.22;100.00;97183.78;4978394;28;20077;-56
2022/05/23 03:54:05;;;;;;;19.73;5.45;;;;;;;14.41;100.00;97172.88;4978357;28;20668;-55
2022/05/23 03:56:30;;;;;;;20.75;6.10;;;;;;;14.37;100.00;97175.81;4978049;28;20549;-55
2022/05/23 03:58:56;;;;;;;21.25;6.18;;;;;;;14.65;100.00;97178.22;4978544;28;20030;-55
2022/05/23 04:01:24;;;;;;;19.83;5.63;;;;;;;14.62;100.00;97185.47;4977828;28;20031;-56
2022/05/23 04:03:50;;;;;;;16.58;5.40;;;;;;;14.54;100.00;97169.38;4978730;28;20057;-56
2022/05/23 04:06:15;;;;;;;21.08;5.68;;;;;;;14.56;100.00;97172.75;4978170;28;20042;-56
2022/05/23 04:08:40;;;;;;;15.05;5.20;;;;;;;14.69;100.00;97170.97;4978562;28;20084;-55
2022/05/23 04:11:07;;;;;;;20.42;6.20;;;;;;;14.29;100.00;97162.41;4977790;28;20049;-54
2022/05/23 04:13:33;;;;;;;18.52;5.45;;;;;;;14.51;100.00;97164.38;4978825;28;20102;-54
2022/05/23 04:15:58;;;;;;;16.35;5.03;;;;;;;14.79;100.00;97168.53;4978052;28;20814;-55
2022/05/23 04:18:23;;;;;;;16.60;5.47;;;;;;;14.92;100.00;97161.44;4978401;28;20037;-54
2022/05/23 04:20:49;;;;;;;17.13;5.35;;;;;;;14.89;100.00;97145.06;4977886;28;20038;-55
2022/05/23 04:23:15;;;;;;;16.48;5.85;;;;;;;14.63;100.00;97145.16;4978309;28;20109;-56
2022/05/23 04:25:42;;;;;;;17.88;5.65;;;;;;;14.68;100.00;97143.03;4992821;28;20604;-55
2022/05/23 04:28:09;;;;;;;17.30;5.30;;;;;;;14.69;100.00;97139.47;4978489;28;20057;-55
2022/05/23 04:30:35;;;;;;;15.48;5.30;;;;;;;14.88;100.00;97132.91;4977639;28;20668;-54
2022/05/23 04:35:44;;;;;;;16.98;5.05;;;;;;;15.08;100.00;97134.91;4978324;28;20046;-55
2022/05/23 04:38:11;;;;;;;18.48;5.85;;;;;;;14.79;100.00;97129.16;4980522;28;20030;-56
2022/05/23 04:40:38;;;;;;;15.95;5.50;;;;;;;14.80;100.00;97121.16;4980588;28;20038;-55
2022/05/23 04:43:04;;;;;;;13.80;5.07;;;;;;;15.11;100.00;97113.69;4982202;28;20033;-55
2022/05/23 04:45:30;;;;;;;20.67;5.75;;;;;;;15.15;100.00;97136.16;4980235;28;20547;-57
2022/05/23 04:50:39;;;;;;;18.48;5.50;;;;;;;15.11;100.00;97133.84;4980978;28;20085;-56
2022/05/23 04:53:05;;;;;;;16.67;5.40;;;;;;;15.43;100.00;97144.63;4981703;28;20030;-58
2022/05/23 04:55:33;;;;;;;15.65;5.18;;;;;;;15.25;100.00;97143.34;4980741;28;20118;-55
2022/05/23 04:57:59;;;;;;;17.65;5.60;;;;;;;15.33;100.00;97133.09;4981165;28;20022;-55
2022/05/23 05:00:25;;;;;;;18.38;5.55;;;;;;;15.47;100.00;97134.72;4981226;28;20030;-56
2022/05/23 05:02:51;;;;;;;16.85;5.55;;;;;;;15.38;100.00;97123.09;4981471;28;20088;-58
2022/05/23 05:05:18;;;;;;;15.60;5.45;;;;;;;15.35;100.00;97118.09;4980792;28;20030;-55
2022/05/23 05:07:44;;;;;;;18.52;5.75;;;;;;;15.63;100.00;97122.09;4981360;28;20484;-55
2022/05/23 05:10:10;;;;;;;17.63;5.50;;;;;;;15.65;100.00;97114.09;4980499;28;20053;-56
2022/05/23 05:12:35;;;;;;;18.40;5.35;;;;;;;15.88;100.00;97121.13;4981262;28;20018;-58
2022/05/23 05:15:00;;;;;;;15.25;5.35;;;;;;;16.08;100.00;97110.81;4981287;28;20076;-57
2022/05/23 05:17:27;;;;;;;15.50;5.28;;;;;;;15.73;100.00;97111.72;4981056;28;20044;-56
2022/05/23 05:19:52;;;;;;;16.83;5.43;;;;;;;16.13;100.00;97119.22;4980776;28;20027;-55
2022/05/23 05:22:18;;;;;;;15.32;5.20;;;;;;;16.35;100.00;97111.31;4980340;28;20038;-56
2022/05/23 05:24:43;;;;;;;15.55;5.22;;;;;;;16.61;100.00;97118.94;4981592;28;20061;-56
2022/05/23 05:27:10;;;;;;;16.40;5.43;;;;;;;16.72;100.00;97123.34;4980310;28;20076;-56
2022/05/23 05:29:36;;;;;;;16.13;5.35;;;;;;;16.80;100.00;97130.63;4978284;28;20034;-56
2022/05/23 05:32:10;;;;;;;16.50;4.97;;;;;;;16.85;100.00;97129.31;4978597;28;20095;-56
2022/05/23 05:34:41;;;;;;;19.50;5.13;;;;;;;17.58;100.00;97128.72;4980231;28;20037;-56
2022/05/23 05:37:14;;;;;;;19.67;5.28;;;;;;;17.39;100.00;97140.78;4979310;28;20695;-57
2022/05/23 05:39:42;;;;;;;21.17;4.95;;;;;;;17.59;100.00;97140.91;4980487;28;20459;-56
2022/05/23 05:42:15;;;;;;;13.20;4.38;;;;;;;18.95;100.00;97154.84;4980048;28;20065;-57
2022/05/23 05:44:45;;;;;;;16.95;4.88;;;;;;;20.85;99.41;97150.66;4981074;28;20551;-57
2022/05/23 05:47:15;;;;;;;16.30;4.85;;;;;;;21.81;83.31;97150.09;4979327;28;20092;-56
2022/05/23 05:49:43;;;;;;;15.85;4.47;;;;;;;21.33;86.43;97155.63;4979174;28;20423;-55
2022/05/23 05:52:10;;;;;;;16.50;5.00;;;;;;;21.34;81.65;97162.59;4979532;28;20034;-57
2022/05/23 05:54:38;;;;;;;15.50;4.30;;;;;;;20.87;87.98;97164.59;4980723;28;20026;-58
2022/05/23 05:57:05;;;;;;;13.43;4.53;;;;;;;19.41;99.53;97169.22;4979810;28;20129;-57
2022/05/23 05:59:30;;;;;;;12.65;4.68;;;;;;;20.05;95.93;97168.75;4980685;28;20030;-57
2022/05/23 06:01:56;;;;;;;13.93;4.40;;;;;;;19.38;100.00;97173.94;4979484;28;20109;-56
2022/05/23 06:04:21;;;;;;;14.35;4.80;;;;;;;19.38;100.00;97182.69;4980483;28;20483;-56
2022/05/23 06:12:14;;;;;;;12.35;4.65;;;;;;;19.27;100.00;97196.88;4979295;28;20118;-56
2022/05/23 06:14:41;;;;;;;13.65;4.57;;;;;;;19.37;100.00;97196.91;4980341;28;20030;-56
2022/05/23 06:17:08;;;;;;;12.50;4.72;;;;;;;19.81;100.00;97210.59;4979282;28;20034;-55
2022/05/23 06:19:43;;;;;;;14.52;4.55;;;;;;;18.96;100.00;97225.19;4979511;28;20019;-54
2022/05/23 06:22:09;;;;;;;13.10;4.47;;;;;;;18.81;100.00;97247.66;4979024;28;20094;-56
2022/05/23 06:24:35;;;;;;;14.98;5.00;;;;;;;18.46;100.00;97267.34;4979930;28;20032;-55
2022/05/23 06:27:01;;;;;;;13.43;4.70;;;;;;;18.46;100.00;97306.94;4979323;28;20038;-56
2022/05/23 06:29:26;;;;;;;15.75;4.90;;;;;;;17.98;100.00;97339.09;4979562;28;20037;-56
2022/05/23 06:31:51;;;;;;;13.45;4.50;;;;;;;17.96;100.00;97343.63;4979282;28;20038;-55
2022/05/23 06:34:17;;;;;;;15.98;4.93;;;;;;;17.96;100.00;97346.28;4979920;28;20049;-55
2022/05/23 06:36:42;;;;;;;17.42;5.20;;;;;;;18.09;100.00;97346.97;4978641;28;20034;-55
2022/05/23 06:39:07;;;;;;;15.23;4.53;;;;;;;17.96;100.00;97347.13;4979644;28;20559;-55
2022/05/23 06:41:33;;;;;;;15.13;4.47;;;;;;;18.06;100.00;97337.47;4978812;28;20096;-57
2022/05/23 06:43:58;;;;;;;12.52;4.90;;;;;;;18.26;100.00;97327.91;4979679;28;20025;-55
2022/05/23 06:46:24;;;;;;;17.25;5.38;;;;;;;18.20;100.00;97324.97;4979147;28;20108;-57
2022/05/23 06:48:49;;;;;;;15.82;4.85;;;;;;;18.33;100.00;97322.97;4979415;28;20731;-55
2022/05/23 06:51:14;;;;;;;15.63;5.30;;;;;;;18.50;100.00;97313.63;4978560;28;20108;-55
2022/05/23 06:53:40;;;;;;;17.52;5.28;;;;;;;17.82;100.00;97307.81;4979095;28;20030;-55
2022/05/23 06:56:06;;;;;;;12.70;4.78;;;;;;;18.06;100.00;97299.72;4978673;28;20049;-56
2022/05/23 06:58:31;;;;;;;13.02;4.95;;;;;;;18.56;100.00;97291.16;4979262;28;20022;-56
2022/05/23 07:00:56;;;;;;;13.40;4.85;;;;;;;18.88;100.00;97291.09;4978144;28;20097;-54
2022/05/23 07:03:22;;;;;;;14.73;4.95;;;;;;;18.22;100.00;97300.13;4979434;28;20030;-56
2022/05/23 07:14:02;;;;;;;16.17;5.20;;;;;;;18.18;100.00;97276.72;4979630;28;20449;-57
2022/05/23 07:16:31;;;;;;;15.65;5.50;;;;;;;18.13;100.00;97277.13;4978775;28;20545;-55
2022/05/23 07:18:56;;;;;;;13.65;4.90;;;;;;;18.40;100.00;97265.22;4979068;28;20031;-56
2022/05/23 07:21:24;;;;;;;13.27;4.82;;;;;;;18.04;100.00;97254.16;4978299;28;20050;-54
2022/05/23 07:23:50;;;;;;;16.00;5.60;;;;;;;17.41;100.00;97246.94;4978540;28;20030;-56
2022/05/23 07:26:16;;;;;;;16.13;5.78;;;;;;;17.71;100.00;97226.94;4978333;28;20049;-55
2022/05/23 07:28:45;;;;;;;13.82;5.28;;;;;;;17.32;100.00;97216.03;4978808;28;20022;-57
2022/05/23 07:31:12;;;;;;;19.77;5.43;;;;;;;17.63;100.00;97218.81;4978211;28;20038;-55
2022/05/23 07:33:39;;;;;;;12.80;4.65;;;;;;;17.75;100.00;97227.50;4979254;28;20023;-55
2022/05/23 07:36:07;;;;;;;14.98;5.63;;;;;;;17.29;100.00;97253.19;4978249;28;20038;-56
2022/05/23 07:38:33;;;;;;;15.95;5.30;;;;;;;17.26;100.00;97243.72;4978818;28;20038;-55
2022/05/23 07:40:59;;;;;;;15.40;5.70;;;;;;;17.24;100.00;97213.19;4978013;28;20740;-54
2022/05/23 07:43:24;;;;;;;16.73;5.57;;;;;;;16.94;100.00;97185.69;4978827;28;20026;-55
2022/05/23 07:45:53;;;;;;;14.75;5.82;;;;;;;16.77;100.00;97169.41;4978316;28;20073;-55
2022/05/23 07:48:19;;;;;;;17.88;6.57;;;;;;;16.64;100.00;97160.00;4978212;28;20052;-54
2022/05/23 07:50:45;;;;;;;20.45;6.63;;;;;;;16.61;100.00;97147.06;4977939;28;20039;-54
2022/05/23 08:01:24;;;;;;;24.08;8.23;;;;;;;16.12;100.00;97072.81;4978108;28;20045;-56
2022/05/23 08:03:49;;;;;;;20.13;7.18;;;;;;;16.10;100.00;97066.81;4978431;28;20535;-54
2022/05/23 08:06:15;;;;;;;19.25;7.28;;;;;;;16.57;100.00;97054.34;4978727;28;20035;-55
2022/05/23 08:08:40;;;;;;;18.15;7.45;;;;;;;17.14;100.00;97066.38;4978597;28;20030;-56
2022/05/23 08:11:08;;;;;;;16.77;6.78;;;;;;;17.32;100.00;97039.47;4978513;28;20038;-56
2022/05/23 08:13:39;;;;;;;19.17;6.80;;;;;;;17.81;100.00;97022.13;4983643;28;20066;-56
2022/05/23 08:16:05;;;;;;;18.00;6.30;;;;;;;17.97;100.00;97010.25;4982033;28;20066;-55
2022/05/23 08:18:30;;;;;;;16.92;6.22;;;;;;;18.53;100.00;96996.53;4982387;28;20671;-56
2022/05/23 08:20:56;;;;;;;16.90;5.95;;;;;;;18.78;100.00;96996.94;4982352;28;20049;-55
2022/05/23 08:23:22;;;;;;;14.05;5.57;;;;;;;17.90;100.00;96994.97;4982252;28;20113;-56
2022/05/23 08:25:47;;;;;;;15.27;5.75;;;;;;;18.95;100.00;96979.59;4981794;28;20069;-56
2022/05/23 08:28:13;;;;;;;15.77;5.13;;;;;;;18.90;100.00;96953.59;4981769;28;20038;-56
2022/05/23 08:30:39;;;;;;;17.60;5.53;;;;;;;18.68;100.00;96942.31;4981399;28;20778;-56
2022/05/23 08:33:05;;;;;;;13.75;4.55;;;;;;;19.12;100.00;96933.13;4981928;28;20063;-56
2022/05/23 08:35:30;;;;;;;12.82;4.65;;;;;;;19.47;100.00;96932.47;4981332;28;20034;-55
2022/05/23 08:37:58;;;;;;;17.15;5.00;;;;;;;19.40;100.00;96924.25;4981900;28;20030;-55
2022/05/23 08:40:49;;;;;;;14.63;4.82;;;;;;;19.75;100.00;96928.06;4981299;28;20033;-54
2022/05/23 08:43:28;;;;;;;14.80;4.82;;;;;;;20.77;100.00;96927.00;4980248;28;20673;-55
2022/05/23 08:45:57;;;;;;;18.02;4.80;;;;;;;20.79;100.00;96924.19;4981420;28;20042;-55
2022/05/23 08:48:30;;;;;;;16.95;4.85;;;;;;;20.55;100.00;96927.44;4981559;28;20657;-55
2022/05/23 08:51:10;;;;;;;12.48;4.70;;;;;;;20.80;100.00;96931.13;4980743;28;20072;-55
2022/05/23 08:53:46;;;;;;;12.63;4.40;;;;;;;20.97;100.00;96938.25;4981784;28;20026;-54
2022/05/23 08:56:32;;;;;;;13.07;4.47;;;;;;;22.05;100.00;96926.41;4980772;28;20046;-54
2022/05/23 08:59:05;;;;;;;12.20;4.47;;;;;;;22.52;100.00;96924.03;4981698;28;20569;-57
2022/05/23 09:01:46;;;;;;;11.23;4.15;;;;;;;22.05;100.00;96921.91;4981196;28;20038;-57
2022/05/23 09:04:13;;;;;;;12.27;4.13;;;;;;;23.05;100.00;96913.13;4981190;28;20113;-55
2022/05/23 09:06:47;;;;;;;12.27;4.07;;;;;;;23.03;100.00;96912.41;4980993;28;20974;-55
2022/05/23 09:09:17;;;;;;;12.80;4.35;;;;;;;23.74;100.00;96909.94;4981437;28;20089;-56
2022/05/23 09:11:45;;;;;;;15.20;4.70;;;;;;;25.71;82.40;96906.63;4980140;28;20030;-56
2022/05/23 09:14:13;;;;;;;15.07;4.72;;;;;;;25.91;76.62;96892.72;4996044;28;20271;-56
2022/05/23 09:16:43;;;;;;;10.18;3.80;;;;;;;25.51;73.29;96903.72;4980795;28;20038;-56
2022/05/23 09:19:33;;;;;;;10.18;3.72;;;;;;;25.83;72.33;96893.66;4981171;28;20085;-55
2022/05/23 09:22:23;;;;;;;11.60;4.00;;;;;;;25.21;71.83;96890.31;4980634;28;20042;-55
2022/05/23 09:24:59;;;;;;;10.57;3.90;;;;;;;24.82;72.14;96890.53;4980804;28;20752;-55
2022/05/23 09:27:31;;;;;;;10.30;3.60;;;;;;;24.37;70.78;96886.81;4980124;28;20046;-57
2022/05/23 09:29:58;;;;;;;10.15;4.00;;;;;;;24.07;77.28;96883.19;4980791;28;20485;-56
2022/05/23 09:32:26;;;;;;;15.23;4.20;;;;;;;23.66;79.00;96879.69;4980180;28;20571;-56
2022/05/23 09:34:58;;;;;;;13.43;4.07;;;;;;;23.36;83.06;96876.00;4980792;28;20022;-56
2022/05/23 09:37:28;;;;;;;13.95;4.40;;;;;;;23.68;83.15;96867.03;4979794;28;20035;-56
2022/05/23 09:39:58;;;;;;;12.30;3.95;;;;;;;23.70;80.70;96868.72;4980197;28;20022;-56
2022/05/23 09:48:14;;;;;;;9.38;3.10;;;;;;;26.20;66.36;96873.16;4980580;28;20030;-55
2022/05/23 09:50:45;;;;;;;9.40;3.55;;;;;;;24.59;70.55;96875.38;4979973;28;20147;-56
2022/05/23 09:53:24;;;;;;;15.00;4.07;;;;;;;25.49;67.63;96875.53;4979893;28;20032;-55
2022/05/23 09:55:49;;;;;;;10.18;3.38;;;;;;;26.73;59.40;96873.69;4979638;28;20040;-55
2022/05/23 09:58:35;;;;;;;10.68;3.55;;;;;;;26.17;61.66;96876.19;4979890;28;20432;-56
2022/05/23 10:01:08;;;;;;;10.65;3.40;;;;;;;25.81;60.71;96871.66;4979356;28;20068;-56
2022/05/23 10:03:34;;;;;;;11.60;3.28;;;;;;;25.44;61.59;96876.09;4980369;28;20074;-57
2022/05/23 10:06:07;;;;;;;9.40;3.20;;;;;;;25.94;60.62;96879.03;4979555;28;20042;-55
2022/05/23 10:08:36;;;;;;;9.85;3.05;;;;;;;25.99;60.53;96873.09;4979935;28;20508;-55
2022/05/23 10:11:18;;;;;;;9.30;3.22;;;;;;;26.29;60.41;96882.69;4979491;28;20088;-55
2022/05/23 10:13:49;;;;;;;9.68;3.70;;;;;;;25.54;61.84;96879.31;4980179;28;20080;-56
2022/05/23 10:16:23;;;;;;;9.10;3.20;;;;;;;26.40;57.01;96883.22;4979712;28;20104;-56
2022/05/23 10:18:51;;;;;;;8.93;3.20;;;;;;;25.79;57.90;96871.00;4979956;28;20025;-55
2022/05/23 10:21:26;;;;;;;6.75;2.83;;;;;;;25.33;60.58;96876.56;4979552;28;20751;-55
2022/05/23 10:24:03;;;;;;;10.40;3.70;;;;;;;24.96;60.82;96881.72;4979927;28;20144;-56
2022/05/23 10:26:42;;;;;;;12.50;3.50;;;;;;;24.63;61.43;96875.84;4979233;28;20034;-57
2022/05/23 10:29:25;;;;;;;9.50;3.15;;;;;;;27.22;56.04;96874.69;4979575;28;20519;-56
2022/05/23 10:31:53;;;;;;;10.73;3.35;;;;;;;28.67;50.92;96879.22;4978873;28;20038;-56
2022/05/23 10:34:39;;;;;;;9.30;3.30;;;;;;;27.38;54.68;96881.59;4979591;28;20030;-55
2022/05/23 10:37:24;;;;;;;10.23;3.17;;;;;;;26.92;52.25;96872.19;4978989;28;20811;-57
2022/05/23 10:42:46;;;;;;;9.32;3.20;;;;;;;25.34;57.98;96878.22;4979178;28;20046;-56
2022/05/23 10:45:19;;;;;;;7.70;3.25;;;;;;;27.40;54.44;96890.25;4978788;28;20045;-57
2022/05/23 10:48:10;;;;;;;8.88;3.03;;;;;;;28.20;52.06;96879.94;4979346;28;20038;-57
2022/05/23 10:51:00;;;;;;;8.13;3.10;;;;;;;27.84;48.73;96875.63;4977560;28;20034;-56
2022/05/23 10:53:31;;;;;;;9.60;3.75;;;;;;;25.95;51.57;96878.84;4978646;28;20022;-55
2022/05/23 10:56:11;;;;;;;9.68;3.17;;;;;;;27.01;53.11;96875.56;4978673;28;20836;-57
2022/05/23 10:58:43;;;;;;;9.10;3.10;;;;;;;26.00;53.89;96872.09;4979579;28;20030;-56
2022/05/23 11:01:38;;;;;;;9.40;3.53;;;;;;;26.91;51.66;96869.72;4978203;28;20034;-56
2022/05/23 11:04:34;;;;;;;9.43;3.35;;;;;;;27.33;50.88;96873.31;4979184;28;20022;-56
2022/05/23 11:06:59;;;;;;;13.63;3.40;;;;;;;27.96;49.51;96865.22;4978555;28;20943;-55
2022/05/23 11:09:43;;;;;;;10.43;3.43;;;;;;;28.33;48.70;96862.25;4979127;28;20718;-55
2022/05/23 11:12:17;;;;;;;10.68;3.30;;;;;;;27.99;49.00;96883.59;4978271;28;20575;-55
2022/05/23 11:14:59;;;;;;;11.80;2.85;;;;;;;27.48;49.60;96868.69;4978949;28;20106;-58
2022/05/23 11:17:50;;;;;;;8.27;3.33;;;;;;;27.92;50.53;96871.16;4978654;28;20650;-57
2022/05/23 11:20:28;;;;;;;6.70;2.88;;;;;;;28.88;48.98;96862.94;4979136;28;20042;-56
2022/05/23 11:23:00;;;;;;;7.00;2.83;;;;;;;27.71;49.31;96867.56;4979183;28;20030;-56
2022/05/23 11:25:35;;;;;;;;;;;;;;;28.41;50.34;96867.41;4978945;28;20050;-58
2022/05/23 11:34:22;;;;;;;7.18;3.10;;;;;;;27.77;51.93;96853.34;4979167;28;20042;-56
2022/05/23 11:39:47;;;;;;;8.13;3.17;;;;;;;26.64;53.20;96858.78;4978989;28;20096;-57
2022/05/23 11:42:17;;;;;;;10.00;3.25;;;;;;;27.72;51.41;96850.47;4978220;28;20100;-56
2022/05/23 11:44:42;;;;;;;9.40;3.20;;;;;;;27.71;51.13;96846.13;4978666;28;20033;-57
2022/05/23 11:47:21;;;;;;;10.45;3.22;;;;;;;27.65;50.82;96854.97;4982709;28;20038;-55
2022/05/23 11:50:13;;;;;;;11.65;3.45;;;;;;;27.68;51.84;96859.91;4984906;28;20015;-56
2022/05/23 11:53:13;;;;;;;7.78;2.88;;;;;;;26.39;51.68;96861.00;4986660;28;20034;-57
2022/05/23 11:55:51;;;;;;;9.82;3.40;;;;;;;26.52;50.87;96866.50;4983780;28;20812;-57
2022/05/23 11:58:25;;;;;;;11.35;3.28;;;;;;;26.56;50.15;96869.59;4985180;28;20141;-56
2022/05/23 12:01:04;;;;;;;10.82;3.00;;;;;;;26.00;52.36;96867.56;4984908;28;20050;-57
2022/05/23 12:03:47;;;;;;;9.20;2.92;;;;;;;26.77;51.96;96867.97;4985093;28;20069;-57
2022/05/23 12:06:33;;;;;;;9.73;3.00;;;;;;;26.73;51.40;96860.31;4984745;28;20562;-57
2022/05/23 12:08:58;;;;;;;12.52;3.42;;;;;;;26.50;51.46;96865.84;4983577;28;20050;-56
2022/05/23 12:11:26;;;;;;;11.40;3.30;;;;;;;26.80;52.86;96864.88;4984359;28;20436;-57
2022/05/23 12:13:58;;;;;;;10.13;3.35;;;;;;;26.18;55.17;96869.03;4984757;28;20034;-55
2022/05/23 12:16:29;;;;;;;12.32;3.30;;;;;;;25.70;56.92;96866.78;4984828;28;20042;-56
2022/05/23 12:19:31;;;;;;;9.05;2.90;;;;;;;26.68;54.74;96870.75;4983941;28;20092;-57
2022/05/23 12:22:15;;;;;;;;;;;;;;;27.06;53.90;96857.06;4984886;28;20046;-56
2022/05/23 12:25:18;;;;;;;11.73;3.60;;;;;;;26.20;56.08;96841.06;4985022;28;19917;-56
2022/05/23 12:27:43;;;;;;;11.77;3.40;;;;;;;26.09;56.90;96844.25;4984554;28;20166;-58
2022/05/23 12:30:20;;;;;;;10.23;3.50;;;;;;;26.66;56.59;96845.25;4982839;28;20149;-56
2022/05/23 12:32:57;;;;;;;10.05;3.40;;;;;;;25.68;58.86;96842.94;4982878;28;20668;-58